Time;durP1;ratioP1;P1;durP2;ratioP2;P2;SDS_P1;SDS_P2;PMS_P1;PMS_P2;Temp;Humidity;BMP_temperature;BMP_pressure;BME280_temperature;BME280_humidity;BME280_pressure;Samples;Min_cycle;Max_cycle;Signal;HPM_P1;HPM_P2
2024/01/22 00:01:39;;;;;;;0.87;0.87;;;;;;;-3.85;nan;101436.34;5071972;28;20290;-68
2024/01/22 00:04:07;;;;;;;0.80;0.80;;;;;;;-4.05;nan;101409.22;5069779;28;20645;-69
2024/01/22 00:06:33;;;;;;;1.77;1.77;;;;;;;-3.92;nan;101429.22;5072421;28;20200;-69
2024/01/22 00:09:02;;;;;;;1.13;1.13;;;;;;;-3.97;nan;101445.59;5072013;28;20212;-69
2024/01/22 00:11:29;;;;;;;1.97;1.97;;;;;;;-4.00;nan;101430.41;5072280;28;20310;-69
2024/01/22 00:13:56;;;;;;;1.83;1.83;;;;;;;-4.25;nan;101433.06;5071394;28;20291;-69
2024/01/22 00:16:23;;;;;;;1.10;1.10;;;;;;;-4.25;nan;101441.44;5071715;28;20196;-69
2024/01/22 00:18:50;;;;;;;1.13;1.13;;;;;;;-4.14;nan;101443.75;5071834;28;20230;-69
2024/01/22 00:21:17;;;;;;;2.03;2.00;;;;;;;-4.05;nan;101451.81;5067099;28;21458;-69
2024/01/22 00:23:44;;;;;;;0.93;0.93;;;;;;;-4.23;nan;101446.53;5071488;28;20200;-69
2024/01/22 00:26:14;;;;;;;1.30;1.30;;;;;;;-4.13;nan;101450.47;5071350;28;20249;-68
2024/01/22 00:28:40;;;;;;;1.50;1.50;;;;;;;-4.10;nan;101453.19;5071489;28;20215;-69
2024/01/22 00:31:07;;;;;;;2.50;2.50;;;;;;;-4.18;nan;101450.19;5071453;28;20199;-69
2024/01/22 00:33:34;;;;;;;1.20;1.20;;;;;;;-4.15;nan;101434.50;5071630;28;20649;-69
2024/01/22 00:36:01;;;;;;;5.73;1.93;;;;;;;-4.12;nan;101452.22;5071616;28;20265;-69
2024/01/22 00:38:27;;;;;;;1.17;1.17;;;;;;;-4.07;nan;101453.38;5071566;28;20270;-68
2024/01/22 00:40:54;;;;;;;0.80;0.80;;;;;;;-4.00;nan;101446.28;5071203;28;20200;-69
2024/01/22 00:43:22;;;;;;;1.67;1.67;;;;;;;-3.92;nan;101449.28;5071205;28;20234;-68
2024/01/22 00:45:49;;;;;;;0.90;0.90;;;;;;;-3.84;nan;101448.94;5071422;28;20208;-69
2024/01/22 00:48:15;;;;;;;1.57;1.57;;;;;;;-3.87;nan;101443.75;5070945;28;20707;-68
2024/01/22 00:50:42;;;;;;;1.47;1.47;;;;;;;-4.01;nan;101432.06;5071254;28;20196;-68
2024/01/22 00:53:09;;;;;;;1.80;1.80;;;;;;;-3.93;nan;101437.50;5071045;28;20249;-69
2024/01/22 00:55:35;;;;;;;2.00;1.77;;;;;;;-3.86;nan;101449.63;5070797;28;20676;-68
2024/01/22 00:58:02;;;;;;;5.23;2.67;;;;;;;-3.78;nan;101456.00;5071359;28;20225;-69
2024/01/22 01:00:30;;;;;;;0.90;0.90;;;;;;;-3.79;nan;101446.72;5071079;28;20664;-68
2024/01/22 01:02:57;;;;;;;0.93;0.93;;;;;;;-3.69;nan;101448.13;5071045;28;20768;-68
2024/01/22 01:05:23;;;;;;;1.90;1.73;;;;;;;-3.66;nan;101449.19;5070437;28;20687;-68
2024/01/22 01:07:50;;;;;;;2.07;1.97;;;;;;;-3.65;nan;101460.09;5070654;28;20204;-68
2024/01/22 01:10:17;;;;;;;1.07;1.07;;;;;;;-3.61;nan;101455.31;5070533;28;20199;-68
2024/01/22 01:12:43;;;;;;;3.23;1.83;;;;;;;-3.55;nan;101453.19;5070634;28;20675;-68
2024/01/22 01:15:13;;;;;;;1.17;1.17;;;;;;;-3.52;nan;101442.50;5070605;28;20207;-68
2024/01/22 01:17:41;;;;;;;1.20;1.20;;;;;;;-3.49;nan;101438.50;5070851;28;20192;-68
2024/01/22 01:20:08;;;;;;;1.10;1.10;;;;;;;-3.51;nan;101417.50;5070946;28;20200;-68
2024/01/22 01:22:35;;;;;;;2.10;2.10;;;;;;;-3.41;nan;101433.94;5070616;28;20250;-67
2024/01/22 01:25:02;;;;;;;1.00;1.00;;;;;;;-3.37;nan;101428.31;5071014;28;20660;-68
2024/01/22 01:27:29;;;;;;;1.87;1.87;;;;;;;-3.42;nan;101435.56;5070558;28;20744;-68
2024/01/22 01:29:55;;;;;;;1.10;1.10;;;;;;;-3.39;nan;101439.91;5070681;28;20212;-68
2024/01/22 01:32:22;;;;;;;1.00;1.00;;;;;;;-3.37;nan;101429.19;5070258;28;20249;-68
2024/01/22 01:34:50;;;;;;;1.83;1.83;;;;;;;-3.35;nan;101430.13;5070361;28;20675;-68
2024/01/22 01:37:17;;;;;;;1.23;1.23;;;;;;;-3.45;nan;101420.34;5073427;28;20211;-68
2024/01/22 01:39:43;;;;;;;1.10;1.10;;;;;;;-3.44;nan;101431.25;5070217;28;20257;-67
2024/01/22 01:42:10;;;;;;;1.07;1.07;;;;;;;-3.46;nan;101428.66;5068446;28;20628;-68
2024/01/22 01:44:49;;;;;;;1.00;1.00;;;;;;;-3.58;nan;101427.94;5070500;28;20200;-68
2024/01/22 01:47:16;;;;;;;1.73;1.63;;;;;;;-3.58;nan;101417.03;5070467;28;20287;-68
2024/01/22 01:49:43;;;;;;;0.97;0.97;;;;;;;-3.56;nan;101426.41;5070427;28;20216;-68
2024/01/22 01:52:12;;;;;;;1.43;1.43;;;;;;;-3.62;nan;101413.50;5070409;28;20253;-68
2024/01/22 01:54:39;;;;;;;1.00;1.00;;;;;;;-3.67;nan;101407.34;5070159;28;20660;-68
2024/01/22 01:57:06;;;;;;;1.33;1.33;;;;;;;-3.71;nan;101408.81;5070205;28;20283;-68
2024/01/22 01:59:35;;;;;;;2.77;1.30;;;;;;;-3.81;nan;101423.19;5070432;28;20664;-68
2024/01/22 02:02:02;;;;;;;0.90;0.90;;;;;;;-3.92;nan;101415.06;5069919;28;20663;-68
2024/01/22 02:04:30;;;;;;;4.43;1.50;;;;;;;-4.00;nan;101410.34;5070403;28;20306;-68
2024/01/22 02:06:57;;;;;;;1.20;1.20;;;;;;;-3.91;nan;101423.47;5070124;28;20254;-67
2024/01/22 02:09:44;;;;;;;2.87;1.80;;;;;;;-3.92;nan;101425.09;5070112;28;20231;-68
2024/01/22 02:12:11;;;;;;;1.37;1.37;;;;;;;-3.89;nan;101425.28;5069864;28;20241;-68
2024/01/22 02:14:38;;;;;;;1.03;1.03;;;;;;;-3.95;nan;101421.53;5068457;28;20203;-68
2024/01/22 02:17:04;;;;;;;0.90;0.90;;;;;;;-3.91;nan;101430.97;5070385;28;20630;-68
2024/01/22 02:19:31;;;;;;;0.90;0.90;;;;;;;-3.98;nan;101426.38;5070387;28;20257;-68
2024/01/22 02:21:58;;;;;;;1.27;1.27;;;;;;;-4.01;nan;101418.66;5070051;28;20629;-68
2024/01/22 02:24:26;;;;;;;1.80;1.67;;;;;;;-4.05;nan;101416.75;5066032;28;20578;-67
2024/01/22 02:26:53;;;;;;;3.00;2.80;;;;;;;-3.96;nan;101422.31;5069581;28;20204;-68
2024/01/22 02:29:20;;;;;;;2.33;2.10;;;;;;;-3.90;nan;101422.66;5069791;28;20216;-67
2024/01/22 02:31:48;;;;;;;1.27;1.27;;;;;;;-4.03;nan;101395.16;5070369;28;20630;-68
2024/01/22 02:34:15;;;;;;;1.27;1.27;;;;;;;-3.88;nan;101413.63;5069730;28;20223;-68
2024/01/22 02:36:42;;;;;;;0.97;0.97;;;;;;;-3.90;nan;101413.50;5070054;28;20253;-67
2024/01/22 02:39:09;;;;;;;1.20;1.20;;;;;;;-3.86;nan;101415.44;5069830;28;20200;-67
2024/01/22 02:41:37;;;;;;;4.57;1.87;;;;;;;-3.80;nan;101414.91;5070469;28;20204;-67
2024/01/22 02:44:04;;;;;;;1.90;1.90;;;;;;;-3.86;nan;101410.41;5069882;28;20247;-68
2024/01/22 02:46:31;;;;;;;1.20;1.20;;;;;;;-3.94;nan;101406.56;5070603;28;20212;-68
2024/01/22 02:48:58;;;;;;;2.17;2.07;;;;;;;-3.88;nan;101418.63;5070137;28;20231;-68
2024/01/22 02:51:25;;;;;;;1.20;1.20;;;;;;;-3.83;nan;101414.75;5069703;28;20235;-68
2024/01/22 02:53:53;;;;;;;1.40;1.40;;;;;;;-3.89;nan;101416.88;5070204;28;20257;-68
2024/01/22 02:56:20;;;;;;;1.07;1.07;;;;;;;-4.09;nan;101389.78;5072955;28;20556;-67
2024/01/22 02:58:48;;;;;;;1.00;1.00;;;;;;;-3.96;nan;101412.28;5073870;28;20196;-68
2024/01/22 03:01:15;;;;;;;1.17;1.17;;;;;;;-4.02;nan;101417.78;5072347;28;20204;-68
2024/01/22 03:03:42;;;;;;;1.50;1.50;;;;;;;-3.99;nan;101414.59;5073008;28;20204;-68
2024/01/22 03:06:09;;;;;;;0.93;0.93;;;;;;;-4.07;nan;101415.81;5073348;28;20214;-68
2024/01/22 03:08:36;;;;;;;1.57;1.57;;;;;;;-4.03;nan;101420.19;5073359;28;20238;-67
2024/01/22 03:11:02;;;;;;;1.20;1.20;;;;;;;-4.01;nan;101422.03;5073488;28;20725;-67
2024/01/22 03:13:29;;;;;;;1.50;1.50;;;;;;;-3.95;nan;101416.53;5072910;28;20192;-68
2024/01/22 03:15:57;;;;;;;2.30;2.20;;;;;;;-3.94;nan;101421.63;5073148;28;20559;-68
2024/01/22 03:18:24;;;;;;;0.90;0.90;;;;;;;-3.94;nan;101418.28;5073223;28;20196;-68
2024/01/22 03:20:50;;;;;;;1.10;1.10;;;;;;;-3.91;nan;101415.94;5073108;28;20192;-68
2024/01/22 03:23:17;;;;;;;1.10;1.10;;;;;;;-4.05;nan;101411.72;5073347;28;20245;-68
2024/01/22 03:25:44;;;;;;;1.67;1.67;;;;;;;-4.03;nan;101427.72;5072756;28;20553;-67
2024/01/22 03:28:11;;;;;;;1.20;1.20;;;;;;;-3.98;nan;101431.38;5073148;28;20191;-67
2024/01/22 03:30:37;;;;;;;0.90;0.90;;;;;;;-4.00;nan;101427.88;5072779;28;20295;-67
2024/01/22 03:33:06;;;;;;;0.70;0.70;;;;;;;-4.05;nan;101429.25;5072822;28;20224;-68
2024/01/22 03:35:33;;;;;;;1.37;1.37;;;;;;;-4.12;nan;101440.56;5071525;28;20196;-68
2024/01/22 03:37:59;;;;;;;1.30;1.30;;;;;;;-4.07;nan;101438.34;5072775;28;20196;-67
2024/01/22 03:40:26;;;;;;;0.77;0.77;;;;;;;-4.08;nan;101439.97;5078820;28;20233;-68
2024/01/22 03:42:53;;;;;;;1.00;1.00;;;;;;;-4.07;nan;101435.84;5072855;28;20676;-67
2024/01/22 03:45:19;;;;;;;2.40;2.27;;;;;;;-4.06;nan;101440.06;5072144;28;20200;-68
2024/01/22 03:47:46;;;;;;;1.00;1.00;;;;;;;-4.04;nan;101439.41;5072249;28;20257;-67
2024/01/22 03:50:15;;;;;;;0.90;0.90;;;;;;;-4.21;nan;101419.09;5072456;28;20216;-68
2024/01/22 03:52:41;;;;;;;1.00;1.00;;;;;;;-4.20;nan;101436.72;5072275;28;20204;-68
2024/01/22 03:55:10;;;;;;;1.23;1.23;;;;;;;-4.28;nan;101437.88;5072341;28;20203;-68
2024/01/22 03:57:36;;;;;;;1.57;1.57;;;;;;;-4.38;nan;101435.59;5072611;28;20246;-68
2024/01/22 04:00:04;;;;;;;1.20;1.20;;;;;;;-4.42;nan;101439.53;5071809;28;20192;-68
2024/01/22 04:02:33;;;;;;;1.00;1.00;;;;;;;-4.42;nan;101444.53;5071858;28;20694;-68
2024/01/22 04:05:00;;;;;;;0.90;0.90;;;;;;;-4.38;nan;101445.59;5070506;28;20203;-67
2024/01/22 04:07:27;;;;;;;0.80;0.80;;;;;;;-4.53;nan;101419.63;5072372;28;20196;-68
2024/01/22 04:09:53;;;;;;;1.90;1.90;;;;;;;-4.35;nan;101446.66;5071882;28;20220;-68
2024/01/22 04:12:20;;;;;;;1.00;1.00;;;;;;;-4.33;nan;101445.09;5072296;28;20667;-68
2024/01/22 04:14:47;;;;;;;1.93;1.93;;;;;;;-4.41;nan;101431.25;5071407;28;20192;-68
2024/01/22 04:17:14;;;;;;;0.90;0.90;;;;;;;-4.33;nan;101460.13;5070691;28;20196;-68
2024/01/22 04:19:42;;;;;;;2.70;1.53;;;;;;;-4.32;nan;101451.84;5071514;28;20192;-68
2024/01/22 04:22:09;;;;;;;1.00;1.00;;;;;;;-4.32;nan;101456.84;5071594;28;20196;-67
2024/01/22 04:24:37;;;;;;;1.17;1.17;;;;;;;-4.27;nan;101460.53;5071558;28;20196;-68
2024/01/22 04:27:04;;;;;;;1.23;1.23;;;;;;;-4.37;nan;101444.84;5066552;28;20204;-68
2024/01/22 04:29:31;;;;;;;0.93;0.93;;;;;;;-4.31;nan;101456.09;5071859;28;20583;-68
2024/01/22 04:31:57;;;;;;;1.37;1.37;;;;;;;-4.28;nan;101458.78;5071354;28;20196;-68
2024/01/22 04:34:24;;;;;;;1.07;1.07;;;;;;;-4.24;nan;101454.84;5071156;28;20223;-67
2024/01/22 04:36:51;;;;;;;0.93;0.93;;;;;;;-4.22;nan;101463.31;5071368;28;20665;-68
2024/01/22 04:39:19;;;;;;;1.00;1.00;;;;;;;-4.19;nan;101460.97;5072145;28;20188;-67
2024/01/22 04:41:47;;;;;;;1.03;1.03;;;;;;;-4.19;nan;101462.63;5071644;28;20717;-68
2024/01/22 04:44:14;;;;;;;1.10;1.10;;;;;;;-4.21;nan;101462.53;5070945;28;20196;-67
2024/01/22 04:46:40;;;;;;;1.00;1.00;;;;;;;-4.18;nan;101474.38;5071525;28;20664;-68
2024/01/22 04:49:08;;;;;;;1.03;1.03;;;;;;;-4.28;nan;101452.91;5071108;28;20253;-68
2024/01/22 04:51:35;;;;;;;1.10;1.10;;;;;;;-4.21;nan;101469.19;5071376;28;20204;-68
2024/01/22 04:54:02;;;;;;;1.40;1.40;;;;;;;-4.36;nan;101444.06;5071180;28;20208;-68
2024/01/22 04:56:28;;;;;;;0.90;0.90;;;;;;;-4.26;nan;101467.25;5071062;28;20233;-68
2024/01/22 04:58:56;;;;;;;1.23;1.23;;;;;;;-4.29;nan;101462.06;5071019;28;20200;-68
2024/01/22 05:01:23;;;;;;;1.07;1.07;;;;;;;-4.30;nan;101472.84;5070735;28;20204;-68
2024/01/22 05:03:50;;;;;;;1.30;1.30;;;;;;;-4.27;nan;101465.53;5070843;28;20257;-68
2024/01/22 05:06:16;;;;;;;1.03;1.03;;;;;;;-4.27;nan;101465.53;5070903;28;20204;-68
2024/01/22 05:08:43;;;;;;;1.30;1.30;;;;;;;-4.26;nan;101462.25;5071189;28;20729;-68
2024/01/22 05:11:10;;;;;;;1.03;1.03;;;;;;;-4.43;nan;101446.97;5070777;28;20216;-68
2024/01/22 05:13:36;;;;;;;1.77;1.77;;;;;;;-4.31;nan;101465.25;5070576;28;20192;-68
2024/01/22 05:16:05;;;;;;;0.90;0.90;;;;;;;-4.31;nan;101473.63;5069960;28;20199;-68
2024/01/22 05:18:32;;;;;;;1.33;1.33;;;;;;;-4.30;nan;101480.34;5070361;28;20192;-67
2024/01/22 05:20:58;;;;;;;2.47;2.27;;;;;;;-4.32;nan;101476.88;5071375;28;20246;-61
2024/01/22 05:23:25;;;;;;;0.80;0.80;;;;;;;-4.38;nan;101480.66;5070694;28;20249;-61
2024/01/22 05:25:52;;;;;;;0.70;0.70;;;;;;;-4.48;nan;101478.34;5070657;28;20740;-60
2024/01/22 05:28:19;;;;;;;1.50;1.50;;;;;;;-4.50;nan;101478.25;5070603;28;20605;-60
2024/01/22 05:30:46;;;;;;;1.10;1.10;;;;;;;-4.47;nan;101480.06;5070171;28;20216;-61
2024/01/22 05:33:14;;;;;;;1.07;1.07;;;;;;;-4.46;nan;101481.81;5070621;28;20224;-60
2024/01/22 05:35:40;;;;;;;1.57;1.57;;;;;;;-4.44;nan;101481.13;5069159;28;20200;-61
2024/01/22 05:38:07;;;;;;;1.23;1.23;;;;;;;-4.41;nan;101475.44;5070766;28;20257;-60
2024/01/22 05:40:34;;;;;;;4.43;1.67;;;;;;;-4.41;nan;101475.44;5070161;28;20243;-60
2024/01/22 05:43:00;;;;;;;0.90;0.90;;;;;;;-4.46;nan;101475.16;5070310;28;20257;-60
2024/01/22 05:45:27;;;;;;;3.80;1.40;;;;;;;-4.54;nan;101476.31;5071103;28;20261;-61
2024/01/22 05:47:54;;;;;;;1.00;1.00;;;;;;;-4.59;nan;101484.31;5070069;28;20200;-61
2024/01/22 05:50:22;;;;;;;1.50;1.27;;;;;;;-4.72;nan;101482.69;5071815;28;20668;-60
2024/01/22 05:52:49;;;;;;;1.63;1.63;;;;;;;-4.89;nan;101483.22;5070192;28;20233;-61
2024/01/22 05:55:16;;;;;;;1.67;1.67;;;;;;;-5.00;nan;101477.53;5070143;28;20272;-61
2024/01/22 05:57:43;;;;;;;1.00;1.00;;;;;;;-5.12;nan;101468.34;5070151;28;20200;-61
2024/01/22 06:00:12;;;;;;;1.03;1.03;;;;;;;-5.16;nan;101474.78;5069786;28;20280;-61
2024/01/22 06:02:39;;;;;;;1.10;1.10;;;;;;;-5.13;nan;101476.63;5070677;28;20200;-61
2024/01/22 06:05:07;;;;;;;1.67;1.67;;;;;;;-5.21;nan;101482.75;5068314;28;20258;-60
2024/01/22 06:07:35;;;;;;;1.17;1.17;;;;;;;-5.38;nan;101479.16;5070420;28;20199;-60
2024/01/22 06:10:02;;;;;;;1.30;1.30;;;;;;;-5.50;nan;101489.22;5069806;28;20220;-60
2024/01/22 06:12:29;;;;;;;3.47;3.27;;;;;;;-5.47;nan;101471.91;5069063;28;20204;-60
2024/01/22 06:14:57;;;;;;;1.20;1.20;;;;;;;-5.39;nan;101482.41;5070090;28;20204;-61
2024/01/22 06:17:24;;;;;;;1.40;1.40;;;;;;;-5.41;nan;101486.44;5075058;28;20284;-61
2024/01/22 06:19:54;;;;;;;1.10;1.10;;;;;;;-5.42;nan;101488.06;5075935;28;20204;-60
2024/01/22 06:22:20;;;;;;;1.07;1.07;;;;;;;-5.36;nan;101488.47;5070092;28;20656;-60
2024/01/22 06:24:49;;;;;;;1.00;1.00;;;;;;;-5.29;nan;101489.75;5069820;28;20660;-60
2024/01/22 06:27:16;;;;;;;1.03;1.03;;;;;;;-5.27;nan;101494.88;5069609;28;20204;-60
2024/01/22 06:29:42;;;;;;;1.30;1.30;;;;;;;-5.24;nan;101492.56;5073841;28;20215;-61
2024/01/22 06:32:10;;;;;;;1.47;1.47;;;;;;;-5.22;nan;101486.88;5073724;28;20203;-61
2024/01/22 06:34:37;;;;;;;0.93;0.93;;;;;;;-5.17;nan;101490.59;5073957;28;20228;-61
2024/01/22 06:37:04;;;;;;;1.20;1.20;;;;;;;-5.12;nan;101494.22;5073976;28;20196;-61
2024/01/22 06:39:31;;;;;;;1.07;1.07;;;;;;;-5.13;nan;101496.63;5073354;28;21716;-60
2024/01/22 06:41:59;;;;;;;1.27;1.27;;;;;;;-5.09;nan;101496.06;5070309;28;20631;-61
2024/01/22 06:44:25;;;;;;;1.50;1.50;;;;;;;-5.05;nan;101495.50;5073168;28;20602;-60
2024/01/22 06:46:52;;;;;;;1.57;1.57;;;;;;;-5.02;nan;101494.06;5075518;28;20204;-60
2024/01/22 06:49:19;;;;;;;1.63;1.53;;;;;;;-5.02;nan;101495.69;5073170;28;20200;-60
2024/01/22 06:51:47;;;;;;;0.97;0.97;;;;;;;-5.01;nan;101507.44;5073237;28;20220;-61
2024/01/22 06:54:13;;;;;;;1.00;1.00;;;;;;;-4.95;nan;101498.72;5073615;28;20196;-61
2024/01/22 06:56:40;;;;;;;1.17;1.17;;;;;;;-4.89;nan;101503.22;5073334;28;20204;-61
2024/01/22 06:59:08;;;;;;;1.17;1.17;;;;;;;-4.88;nan;101504.97;5073099;28;20196;-61
2024/01/22 07:01:35;;;;;;;3.73;1.57;;;;;;;-4.89;nan;101495.72;5072086;28;20269;-61
2024/01/22 07:04:03;;;;;;;1.10;1.10;;;;;;;-4.76;nan;101513.25;5073167;28;20231;-60
2024/01/22 07:06:30;;;;;;;1.50;1.50;;;;;;;-4.74;nan;101509.22;5073057;28;20219;-60
2024/01/22 07:08:56;;;;;;;1.13;1.13;;;;;;;-4.75;nan;101517.50;5072700;28;20618;-62
2024/01/22 07:11:23;;;;;;;1.10;1.10;;;;;;;-4.75;nan;101525.00;5072546;28;20212;-60
2024/01/22 07:13:51;;;;;;;0.80;0.80;;;;;;;-4.80;nan;101518.84;5069854;28;20250;-60
2024/01/22 07:16:19;;;;;;;0.90;0.90;;;;;;;-4.82;nan;101515.38;5073049;28;20668;-60
2024/01/22 07:18:45;;;;;;;1.23;1.23;;;;;;;-4.94;nan;101517.06;5072666;28;20250;-60
2024/01/22 07:21:12;;;;;;;1.53;1.53;;;;;;;-4.96;nan;101521.09;5072652;28;20200;-60
2024/01/22 07:23:39;;;;;;;1.07;1.07;;;;;;;-4.97;nan;101516.84;5071532;28;20192;-60
2024/01/22 07:26:06;;;;;;;1.00;1.00;;;;;;;-5.08;nan;101520.31;5069756;28;20200;-60
2024/01/22 07:28:32;;;;;;;1.13;1.13;;;;;;;-5.05;nan;101518.00;5071713;28;20202;-60
2024/01/22 07:30:59;;;;;;;0.87;0.87;;;;;;;-5.01;nan;101517.44;5067909;28;20220;-60
2024/01/22 07:33:27;;;;;;;0.90;0.90;;;;;;;-5.06;nan;101516.25;5068021;28;20223;-60
2024/01/22 07:35:54;;;;;;;1.63;1.63;;;;;;;-5.05;nan;101521.38;5070493;28;20200;-60
2024/01/22 07:38:21;;;;;;;1.27;1.27;;;;;;;-5.03;nan;101516.47;5070030;28;20630;-61
2024/01/22 07:40:47;;;;;;;1.00;1.00;;;;;;;-4.99;nan;101525.91;5068560;28;20195;-60
2024/01/22 07:43:14;;;;;;;1.30;1.30;;;;;;;-4.95;nan;101525.34;5067554;28;20262;-60
2024/01/22 07:45:41;;;;;;;0.80;0.80;;;;;;;-4.90;nan;101526.50;5071178;28;20200;-60
2024/01/22 07:48:08;;;;;;;1.37;1.37;;;;;;;-4.87;nan;101526.69;5070147;28;20210;-60
2024/01/22 07:50:36;;;;;;;1.10;1.10;;;;;;;-4.85;nan;101521.06;5073075;28;20216;-61
2024/01/22 07:53:02;;;;;;;1.00;1.00;;;;;;;-4.79;nan;101525.56;5071519;28;20671;-60
2024/01/22 07:55:29;;;;;;;1.13;1.13;;;;;;;-4.69;nan;101527.03;5066734;28;20637;-61
2024/01/22 07:57:56;;;;;;;0.90;0.90;;;;;;;-4.54;nan;101513.88;5070354;28;20207;-61
2024/01/22 08:00:22;;;;;;;1.00;1.00;;;;;;;-4.41;nan;101528.88;5067911;28;20262;-61
2024/01/22 08:02:49;;;;;;;1.13;1.13;;;;;;;-4.25;nan;101524.06;5069982;28;20273;-61
2024/01/22 08:05:16;;;;;;;0.97;0.97;;;;;;;-4.15;nan;101514.63;5068334;28;20204;-61
2024/01/22 08:07:44;;;;;;;0.70;0.70;;;;;;;-3.95;nan;101509.22;5066801;28;20265;-61
2024/01/22 08:10:12;;;;;;;1.77;1.77;;;;;;;-3.88;nan;101504.69;5068281;28;20285;-64
2024/01/22 08:12:39;;;;;;;1.03;1.03;;;;;;;-3.69;nan;101518.31;5069694;28;20211;-63
2024/01/22 08:15:06;;;;;;;1.27;1.27;;;;;;;-3.63;nan;101514.53;5069964;28;20204;-64
2024/01/22 08:17:35;;;;;;;1.23;1.23;;;;;;;-3.57;nan;101519.03;5071014;28;20602;-62
2024/01/22 08:20:02;;;;;;;1.40;1.40;;;;;;;-3.42;nan;101513.28;5068674;28;20200;-60
2024/01/22 08:22:29;;;;;;;1.07;1.07;;;;;;;-3.23;nan;101517.78;5069715;28;20587;-61
2024/01/22 08:24:57;;;;;;;1.20;1.20;;;;;;;-3.23;nan;101512.75;5068751;28;20207;-63
2024/01/22 08:27:24;;;;;;;0.93;0.93;;;;;;;-3.09;nan;101518.56;5068283;28;20201;-63
2024/01/22 08:29:50;;;;;;;1.27;1.27;;;;;;;-2.87;nan;101519.00;5067643;28;20212;-62
2024/01/22 08:32:17;;;;;;;0.90;0.90;;;;;;;-2.71;nan;101509.06;5069071;28;20277;-64
2024/01/22 08:34:44;;;;;;;0.80;0.80;;;;;;;-2.57;nan;101510.72;5070615;28;20196;-61
2024/01/22 08:37:10;;;;;;;1.77;1.77;;;;;;;-2.62;nan;101514.63;5067794;28;20257;-63
2024/01/22 08:39:37;;;;;;;1.47;1.47;;;;;;;-2.53;nan;101512.63;5068868;28;20618;-63
2024/01/22 08:42:08;;;;;;;1.10;1.10;;;;;;;-2.45;nan;101506.34;5070823;28;20208;-63
2024/01/22 08:44:34;;;;;;;1.43;1.43;;;;;;;-2.41;nan;101508.25;5066291;28;20668;-63
2024/01/22 08:47:02;;;;;;;1.33;1.33;;;;;;;-2.41;nan;101500.72;5068611;28;20207;-62
2024/01/22 08:49:29;;;;;;;0.80;0.80;;;;;;;-2.41;nan;101505.75;5069779;28;20254;-63
2024/01/22 08:51:56;;;;;;;5.70;3.03;;;;;;;-2.23;nan;101499.22;5066622;28;20292;-64
2024/01/22 08:54:22;;;;;;;1.73;1.73;;;;;;;-2.02;nan;101488.59;5068768;28;20204;-64
2024/01/22 08:56:49;;;;;;;3.10;3.00;;;;;;;-1.83;nan;101492.16;5066097;28;20277;-64
2024/01/22 08:59:17;;;;;;;1.57;1.57;;;;;;;-1.71;nan;101481.88;5068587;28;20203;-64
2024/01/22 09:01:44;;;;;;;1.00;1.00;;;;;;;-1.58;nan;101479.22;5067764;28;20196;-61
2024/01/22 09:04:10;;;;;;;0.90;0.90;;;;;;;-1.46;nan;101489.91;5069217;28;20273;-63
2024/01/22 09:06:38;;;;;;;0.80;0.80;;;;;;;-1.42;nan;101484.25;5068059;28;20208;-63
2024/01/22 09:09:07;;;;;;;0.70;0.70;;;;;;;-1.38;nan;101483.63;5066409;28;20253;-61
2024/01/22 09:11:34;;;;;;;0.83;0.83;;;;;;;-1.33;nan;101486.38;5068278;28;20224;-62
2024/01/22 09:14:01;;;;;;;0.90;0.90;;;;;;;-1.27;nan;101477.50;5068625;28;20621;-62
2024/01/22 09:16:29;;;;;;;1.17;1.17;;;;;;;-1.18;nan;101482.09;5066774;28;20196;-62
2024/01/22 09:18:57;;;;;;;1.10;1.10;;;;;;;-1.14;nan;101476.44;5069348;28;20591;-63
2024/01/22 09:21:24;;;;;;;0.90;0.90;;;;;;;-1.06;nan;101475.16;5069073;28;20299;-62
2024/01/22 09:23:50;;;;;;;1.00;1.00;;;;;;;-0.99;nan;101478.84;5068363;28;20211;-61
2024/01/22 09:26:17;;;;;;;1.00;1.00;;;;;;;-0.89;nan;101465.91;5068826;28;20214;-61
2024/01/22 09:28:44;;;;;;;0.70;0.70;;;;;;;-0.81;nan;101465.50;5068978;28;20297;-61
2024/01/22 09:31:11;;;;;;;1.23;1.23;;;;;;;-0.63;nan;101468.03;5068612;28;20254;-62
2024/01/22 09:33:39;;;;;;;1.77;1.67;;;;;;;-0.58;nan;101459.03;5067892;28;20227;-61
2024/01/22 09:36:07;;;;;;;1.63;1.63;;;;;;;-0.51;nan;101458.53;5069105;28;20257;-66
2024/01/22 09:38:33;;;;;;;3.30;1.53;;;;;;;-0.41;nan;101448.09;5067344;28;20211;-65
2024/01/22 09:41:00;;;;;;;1.70;1.70;;;;;;;-0.39;nan;101451.56;5067634;28;20203;-67
2024/01/22 09:43:27;;;;;;;0.80;0.80;;;;;;;-0.36;nan;101436.59;5071915;28;20261;-68
2024/01/22 09:45:54;;;;;;;3.40;3.30;;;;;;;-0.14;nan;101439.28;5067639;28;20199;-71
2024/01/22 09:48:21;;;;;;;3.90;3.80;;;;;;;-0.02;nan;101427.22;5067078;28;20517;-72
2024/01/22 09:50:51;;;;;;;2.70;2.70;;;;;;;0.07;nan;101431.81;5063922;28;20216;-71
2024/01/22 09:53:20;;;;;;;1.47;1.47;;;;;;;0.19;nan;101434.03;5067987;28;20323;-69
2024/01/22 09:55:48;;;;;;;1.07;1.07;;;;;;;0.22;nan;101429.09;5065610;28;20199;-69
2024/01/22 09:58:21;;;;;;;3.70;1.40;;;;;;;0.23;nan;101424.09;5066991;28;20640;-68
2024/01/22 10:00:48;;;;;;;5.23;4.87;;;;;;;0.30;nan;101417.66;5066913;28;20254;-72
2024/01/22 10:03:15;;;;;;;1.80;1.80;;;;;;;0.37;nan;101414.63;5070736;28;20212;-68
2024/01/22 10:05:42;;;;;;;1.30;1.30;;;;;;;0.41;nan;101408.91;5074884;28;20209;-70
2024/01/22 10:08:10;;;;;;;0.90;0.90;;;;;;;0.46;nan;101407.44;5074337;28;20200;-69
2024/01/22 10:10:38;;;;;;;2.73;2.60;;;;;;;0.48;nan;101403.34;5074514;28;20257;-67
2024/01/22 10:13:07;;;;;;;2.07;2.07;;;;;;;0.48;nan;101399.16;5074661;28;20621;-67
2024/01/22 10:15:35;;;;;;;1.73;1.73;;;;;;;0.52;nan;101395.06;5075115;28;20200;-71
2024/01/22 10:18:13;;;;;;;1.13;1.13;;;;;;;0.63;nan;101393.88;5073203;28;20257;-69
2024/01/22 10:20:41;;;;;;;1.63;1.63;;;;;;;0.41;nan;101345.84;5072731;28;20660;-71
2024/01/22 10:23:08;;;;;;;0.70;0.70;;;;;;;0.67;nan;101384.78;5072210;28;20203;-72
2024/01/22 10:25:37;;;;;;;1.20;1.20;;;;;;;0.64;nan;101385.50;5074021;28;20235;-72
2024/01/22 10:28:11;;;;;;;1.07;1.07;;;;;;;0.70;nan;101385.75;5075162;28;20207;-70
2024/01/22 10:30:39;;;;;;;1.30;1.30;;;;;;;0.62;nan;101366.91;5072885;28;20195;-70
2024/01/22 10:33:11;;;;;;;1.30;1.30;;;;;;;0.81;nan;101374.41;5072540;28;20575;-70
2024/01/22 10:35:37;;;;;;;1.47;1.47;;;;;;;0.88;nan;101378.91;5075539;28;20204;-69
2024/01/22 10:38:12;;;;;;;0.73;0.73;;;;;;;0.92;nan;101378.25;5073877;28;20277;-70
2024/01/22 10:40:41;;;;;;;1.80;1.70;;;;;;;0.79;nan;101372.63;5066530;28;20199;-69
2024/01/22 10:43:26;;;;;;;0.90;0.90;;;;;;;0.73;nan;101355.59;5074064;28;20207;-70
2024/01/22 10:45:54;;;;;;;1.57;1.47;;;;;;;0.76;nan;101370.00;5071585;28;20196;-70
2024/01/22 10:48:23;;;;;;;1.00;1.00;;;;;;;0.78;nan;101373.44;5073528;28;20204;-70
2024/01/22 10:50:50;;;;;;;1.20;1.20;;;;;;;0.79;nan;101360.03;5073848;28;20203;-70
2024/01/22 10:53:18;;;;;;;1.93;1.07;;;;;;;0.73;nan;101359.78;5074468;28;20204;-70
2024/01/22 10:56:00;;;;;;;1.00;1.00;;;;;;;0.77;nan;101362.50;5073211;28;20207;-71
2024/01/22 10:58:28;;;;;;;1.13;1.13;;;;;;;0.67;nan;101362.91;5076002;28;20196;-70
2024/01/22 11:01:01;;;;;;;1.00;1.00;;;;;;;0.68;nan;101352.00;5074379;28;20204;-70
2024/01/22 11:03:29;;;;;;;0.90;0.90;;;;;;;0.64;nan;101345.13;5074186;28;20204;-70
2024/01/22 11:06:00;;;;;;;4.03;2.67;;;;;;;0.76;nan;101345.63;5072910;28;20588;-70
2024/01/22 11:08:30;;;;;;;0.80;0.80;;;;;;;0.69;nan;101333.53;5075460;28;20299;-70
2024/01/22 11:10:59;;;;;;;1.30;1.30;;;;;;;0.87;nan;101346.06;5075494;28;20228;-70
2024/01/22 11:13:27;;;;;;;0.90;0.90;;;;;;;0.79;nan;101329.72;5073787;28;20699;-69
2024/01/22 11:15:55;;;;;;;0.70;0.70;;;;;;;0.81;nan;101341.59;5065879;28;20200;-66
2024/01/22 11:18:22;;;;;;;0.97;0.97;;;;;;;0.87;nan;101339.31;5066482;28;20242;-68
2024/01/22 11:20:57;;;;;;;0.70;0.70;;;;;;;0.91;nan;101331.06;5070227;28;20277;-68
2024/01/22 11:23:24;;;;;;;0.90;0.90;;;;;;;0.93;nan;101329.47;5069170;28;20257;-68
2024/01/22 11:26:09;;;;;;;1.20;1.20;;;;;;;0.98;nan;101328.00;5061871;28;20204;-68
2024/01/22 11:28:36;;;;;;;1.73;1.63;;;;;;;1.00;nan;101310.38;5068575;28;20208;-68
2024/01/22 11:31:04;;;;;;;0.60;0.60;;;;;;;1.16;nan;101321.94;5066606;28;20231;-68
2024/01/22 11:33:31;;;;;;;2.53;2.43;;;;;;;1.21;nan;101315.38;5070929;28;20227;-69
2024/01/22 11:35:57;;;;;;;1.43;1.33;;;;;;;1.22;nan;101317.09;5067110;28;20204;-69
2024/01/22 11:38:54;;;;;;;0.97;0.97;;;;;;;1.29;nan;101306.44;5070893;28;20204;-68
2024/01/22 11:41:32;;;;;;;2.33;1.23;;;;;;;1.33;nan;101306.59;5060058;28;20208;-69
2024/01/22 11:43:59;;;;;;;1.20;1.20;;;;;;;1.46;nan;101302.84;5062671;28;20204;-69
2024/01/22 11:46:26;;;;;;;0.87;0.87;;;;;;;1.45;nan;101296.97;5068588;28;20212;-69